Time;durP1;ratioP1;P1;durP2;ratioP2;P2;SDS_P1;SDS_P2;PMS_P1;PMS_P2;Temp;Humidity;BMP_temperature;BMP_pressure;BME280_temperature;BME280_humidity;BME280_pressure;Samples;Min_cycle;Max_cycle;Signal;HPM_P1;HPM_P2
2023/01/27 00:00:18;;;;;;;9.40;5.28;;;;;;;0.12;100.00;93815.22;5121376;28;20938;-83
2023/01/27 00:02:45;;;;;;;13.55;5.97;;;;;;;0.31;100.00;93816.06;5111213;28;20205;-83
2023/01/27 00:05:15;;;;;;;11.10;5.30;;;;;;;0.51;100.00;93815.84;5111624;28;20286;-81
2023/01/27 00:07:45;;;;;;;10.65;4.88;;;;;;;0.49;100.00;93811.88;5111111;28;20234;-81
2023/01/27 00:10:14;;;;;;;8.75;4.68;;;;;;;0.27;100.00;93815.06;5110480;28;20213;-82
2023/01/27 00:15:27;;;;;;;11.18;3.92;;;;;;;0.20;100.00;93809.28;5098676;28;20205;-82
2023/01/27 00:17:54;;;;;;;6.85;3.17;;;;;;;0.36;100.00;93805.38;5095690;28;20595;-83
2023/01/27 00:24:34;;;;;;;6.22;3.47;;;;;;;0.49;100.00;93796.69;5110415;28;20201;-82
2023/01/27 00:26:00;;;;;;;7.55;4.05;;;;;;;0.70;100.00;93787.34;5110317;28;20693;-82
2023/01/27 00:28:30;;;;;;;13.80;4.90;;;;;;;0.68;100.00;93784.16;5111091;28;20221;-83
2023/01/27 00:30:57;;;;;;;10.75;4.05;;;;;;;0.82;100.00;93783.50;5110688;28;20201;-83
2023/01/27 00:33:26;;;;;;;11.30;4.72;;;;;;;0.90;100.00;93775.63;5110567;28;20202;-83
2023/01/27 00:36:04;;;;;;;8.77;4.65;;;;;;;0.90;99.92;93796.16;5109260;28;20235;-83
2023/01/27 00:38:32;;;;;;;7.85;4.60;;;;;;;1.01;99.95;93786.94;5110593;28;20206;-82
2023/01/27 00:43:45;;;;;;;7.55;3.78;;;;;;;0.79;99.52;93773.41;5109912;28;20228;-80
2023/01/27 00:46:12;;;;;;;11.73;5.28;;;;;;;0.79;100.00;93784.06;5109366;28;20202;-81
2023/01/27 00:48:39;;;;;;;11.13;4.97;;;;;;;0.94;99.65;93805.19;5123468;27;20659;-82
2023/01/27 00:51:06;;;;;;;7.00;3.63;;;;;;;0.89;99.50;93794.56;5116918;27;20205;-81
2023/01/27 00:53:33;;;;;;;11.52;4.13;;;;;;;0.77;99.76;93787.00;5108622;28;20202;-80
2023/01/27 00:55:59;;;;;;;8.40;4.63;;;;;;;0.86;99.17;93774.59;5108907;28;20262;-80
2023/01/27 00:58:27;;;;;;;9.00;4.75;;;;;;;0.81;99.21;93789.91;5109071;28;20197;-80
2023/01/27 01:00:55;;;;;;;7.80;4.07;;;;;;;0.93;98.73;93784.94;5108955;28;20738;-80
2023/01/27 01:03:22;;;;;;;5.90;4.03;;;;;;;1.15;98.67;93787.00;5109195;28;20194;-80
2023/01/27 01:05:49;;;;;;;12.10;5.43;;;;;;;0.92;98.07;93796.66;5108886;28;20768;-80
2023/01/27 01:08:16;;;;;;;5.15;3.20;;;;;;;0.84;98.67;93783.97;5108903;28;20202;-81
2023/01/27 01:10:43;;;;;;;7.45;5.07;;;;;;;0.99;98.45;93779.22;5109552;28;20537;-80
2023/01/27 01:13:11;;;;;;;7.40;3.47;;;;;;;1.06;98.47;93776.19;5109394;28;20205;-79
2023/01/27 01:15:39;;;;;;;6.57;3.67;;;;;;;1.21;98.25;93786.66;5108690;28;20725;-79
2023/01/27 01:18:09;;;;;;;13.65;6.20;;;;;;;1.10;97.43;93785.19;5076792;28;20233;-78
2023/01/27 01:20:38;;;;;;;7.78;4.25;;;;;;;1.15;97.47;93782.47;5108835;28;20213;-78
2023/01/27 01:23:05;;;;;;;7.45;5.10;;;;;;;0.56;98.00;93781.13;5109065;28;20251;-78
2023/01/27 01:25:32;;;;;;;4.40;3.10;;;;;;;0.61;99.33;93783.75;5108684;28;20229;-78
2023/01/27 01:27:59;;;;;;;11.50;5.45;;;;;;;0.70;100.00;93776.69;5109021;28;20229;-79
2023/01/27 01:30:28;;;;;;;8.02;4.65;;;;;;;0.84;99.59;93775.97;5109136;28;20270;-78
2023/01/27 01:32:55;;;;;;;7.90;4.18;;;;;;;0.74;99.38;93786.78;5109304;28;20262;-79
2023/01/27 01:35:24;;;;;;;10.02;5.22;;;;;;;0.76;98.74;93790.75;5109063;28;20327;-79
2023/01/27 01:37:51;;;;;;;10.27;4.75;;;;;;;0.79;98.42;93789.38;5108934;28;20202;-80
2023/01/27 01:40:19;;;;;;;9.15;4.75;;;;;;;0.86;98.34;93801.25;5109091;28;20259;-79
2023/01/27 01:42:54;;;;;;;9.52;4.10;;;;;;;0.90;97.88;93793.50;5108217;28;20232;-79
2023/01/27 01:45:50;;;;;;;9.23;4.97;;;;;;;0.90;98.22;93794.28;5108417;28;20703;-80
2023/01/27 01:48:23;;;;;;;9.23;4.90;;;;;;;0.99;98.05;93800.53;5108543;28;20210;-79
2023/01/27 01:50:56;;;;;;;9.98;4.45;;;;;;;1.13;97.68;93784.63;5108878;28;20711;-79
2023/01/27 01:53:30;;;;;;;8.80;4.82;;;;;;;1.07;97.04;93780.47;5108480;28;20208;-81
2023/01/27 01:56:00;;;;;;;7.32;5.13;;;;;;;1.18;97.24;93776.56;5108855;28;20213;-79
2023/01/27 01:58:28;;;;;;;12.00;3.80;;;;;;;1.09;96.92;93775.63;5090301;28;20232;-79
2023/01/27 02:00:55;;;;;;;8.07;4.00;;;;;;;1.03;96.68;93779.44;5108773;28;20217;-79
2023/01/27 02:03:25;;;;;;;7.28;4.47;;;;;;;0.70;97.04;93766.03;5108780;28;20293;-79
2023/01/27 02:05:56;;;;;;;6.80;3.65;;;;;;;0.64;98.01;93761.84;5109244;28;20225;-79
2023/01/27 02:08:30;;;;;;;7.80;3.33;;;;;;;0.65;98.03;93757.31;5095410;28;20279;-79
2023/01/27 02:10:58;;;;;;;7.60;4.35;;;;;;;0.80;97.68;93745.66;5108332;28;20207;-80
2023/01/27 02:13:25;;;;;;;10.60;4.45;;;;;;;0.87;98.07;93743.41;5108392;28;20278;-81
2023/01/27 02:15:54;;;;;;;8.25;3.88;;;;;;;0.81;98.29;93729.38;5108086;28;20190;-80
2023/01/27 02:18:22;;;;;;;8.80;4.05;;;;;;;0.42;99.25;93734.97;5107981;28;20232;-80
2023/01/27 02:20:51;;;;;;;7.68;4.00;;;;;;;0.48;99.96;93722.38;5108055;28;20202;-78
2023/01/27 02:23:40;;;;;;;7.40;4.57;;;;;;;0.56;99.39;93725.19;5108419;28;20702;-78
2023/01/27 02:26:13;;;;;;;7.03;4.05;;;;;;;0.55;99.49;93734.25;5108496;28;20366;-79
2023/01/27 02:28:40;;;;;;;5.70;3.03;;;;;;;0.49;99.46;93727.44;5090468;28;20229;-79
2023/01/27 02:31:06;;;;;;;8.02;3.72;;;;;;;0.46;99.76;93729.84;5108356;28;20194;-79
2023/01/27 02:33:33;;;;;;;5.07;3.65;;;;;;;0.62;99.46;93726.72;5108113;28;20210;-79
2023/01/27 02:36:03;;;;;;;15.30;4.32;;;;;;;0.64;99.36;93724.56;5094687;28;20282;-78
2023/01/27 02:38:35;;;;;;;7.28;3.50;;;;;;;0.84;99.06;93720.00;5111956;28;20206;-80
2023/01/27 02:41:07;;;;;;;4.25;2.63;;;;;;;0.73;98.42;93711.38;5111950;28;20247;-79
2023/01/27 02:43:35;;;;;;;5.47;3.40;;;;;;;0.71;98.72;93716.97;5111907;28;20210;-79
2023/01/27 02:46:02;;;;;;;6.03;2.65;;;;;;;0.64;98.40;93729.88;5112319;28;20233;-78
2023/01/27 02:48:28;;;;;;;3.05;2.80;;;;;;;0.75;98.25;93741.19;5112549;28;20361;-78
2023/01/27 02:50:55;;;;;;;6.38;3.58;;;;;;;0.82;98.00;93738.19;5101444;28;20251;-80
2023/01/27 02:53:22;;;;;;;4.82;2.75;;;;;;;0.91;98.17;93744.44;5109285;28;20206;-82
2023/01/27 02:55:49;;;;;;;5.78;3.00;;;;;;;0.93;98.11;93747.59;5112395;28;20197;-79
2023/01/27 02:58:15;;;;;;;4.68;3.10;;;;;;;0.78;98.04;93734.50;5112403;28;20798;-79
2023/01/27 03:00:46;;;;;;;6.57;3.92;;;;;;;0.98;98.03;93731.50;5111752;28;20594;-79
2023/01/27 03:03:13;;;;;;;6.20;3.33;;;;;;;0.91;97.59;93728.44;5111451;28;20220;-79
2023/01/27 03:05:40;;;;;;;9.48;3.80;;;;;;;0.86;97.15;93717.84;5111470;28;20233;-79
2023/01/27 03:08:07;;;;;;;10.07;4.25;;;;;;;0.98;97.42;93718.97;5111433;28;20698;-79
2023/01/27 03:10:34;;;;;;;9.40;4.38;;;;;;;1.05;97.54;93721.28;5111411;28;20213;-79
2023/01/27 03:13:01;;;;;;;5.43;3.50;;;;;;;1.14;96.89;93714.19;5111097;28;20197;-79
2023/01/27 03:18:15;;;;;;;9.35;4.65;;;;;;;1.04;97.09;93703.72;5111741;28;20262;-79
2023/01/27 03:20:43;;;;;;;6.13;3.28;;;;;;;1.07;96.34;93695.13;5110811;28;20618;-79
2023/01/27 03:23:10;;;;;;;8.43;4.15;;;;;;;0.95;96.75;93697.47;5097440;28;20326;-79
2023/01/27 03:25:41;;;;;;;6.25;4.15;;;;;;;0.57;97.79;93697.47;5111107;28;20274;-79
2023/01/27 03:28:08;;;;;;;9.45;4.50;;;;;;;0.43;99.06;93688.59;5111170;28;20274;-79
2023/01/27 03:30:34;;;;;;;8.15;4.20;;;;;;;0.37;99.35;93692.44;5111483;28;20597;-79
2023/01/27 03:33:02;;;;;;;8.00;4.63;;;;;;;0.47;99.54;93692.28;5111376;28;20326;-79
2023/01/27 03:35:37;;;;;;;4.45;2.97;;;;;;;0.54;99.40;93682.06;5110867;28;20283;-79
2023/01/27 03:46:21;;;;;;;11.05;3.72;;;;;;;0.37;99.43;93649.81;5111237;28;20247;-80
2023/01/27 03:48:52;;;;;;;5.75;2.63;;;;;;;0.40;99.82;93651.91;5109878;28;20560;-79
2023/01/27 03:51:22;;;;;;;6.32;3.65;;;;;;;0.57;99.86;93665.50;5110298;28;20194;-79
2023/01/27 03:53:50;;;;;;;6.55;3.40;;;;;;;0.87;99.07;93666.13;5110792;28;20209;-80
2023/01/27 03:56:18;;;;;;;3.72;2.60;;;;;;;0.74;97.93;93662.31;5110450;28;20205;-80
2023/01/27 03:58:44;;;;;;;8.15;3.58;;;;;;;0.73;98.48;93655.41;5110498;28;20193;-79
2023/01/27 04:01:17;;;;;;;7.15;3.78;;;;;;;0.63;98.51;93658.22;5110685;28;20219;-80
2023/01/27 04:09:21;;;;;;;8.27;3.65;;;;;;;0.60;98.44;93694.22;5110860;28;20263;-79
2023/01/27 04:11:57;;;;;;;8.20;3.65;;;;;;;0.58;98.70;93712.38;5110165;28;20242;-81
2023/01/27 04:14:27;;;;;;;4.85;2.97;;;;;;;0.87;98.53;93719.44;5093413;28;20575;-80
2023/01/27 04:16:56;;;;;;;4.18;2.13;;;;;;;1.04;97.60;93735.69;5110211;28;20285;-79
2023/01/27 04:19:23;;;;;;;4.00;2.72;;;;;;;1.03;97.16;93742.13;5110435;28;20255;-80
2023/01/27 04:21:51;;;;;;;7.57;3.45;;;;;;;0.87;96.25;93727.41;5109544;28;20209;-80
2023/01/27 04:24:22;;;;;;;8.90;3.58;;;;;;;0.76;96.30;93720.66;5110008;28;20254;-78
2023/01/27 04:26:53;;;;;;;6.10;3.33;;;;;;;0.98;97.01;93728.84;5110224;28;20324;-78
2023/01/27 04:29:20;;;;;;;10.00;3.63;;;;;;;1.08;96.04;93744.72;5109751;28;20696;-79
2023/01/27 04:31:47;;;;;;;6.22;3.22;;;;;;;1.27;95.00;93737.47;5109636;28;20655;-80
2023/01/27 04:34:14;;;;;;;4.47;2.58;;;;;;;1.31;94.65;93741.13;5109943;28;20208;-79
2023/01/27 04:36:42;;;;;;;7.63;3.70;;;;;;;1.10;93.90;93745.19;5109409;28;20634;-80
2023/01/27 04:39:10;;;;;;;4.70;3.15;;;;;;;0.96;94.47;93741.66;5109649;28;20210;-80
2023/01/27 04:41:37;;;;;;;5.93;4.15;;;;;;;0.68;94.76;93746.84;5109998;28;20728;-79
2023/01/27 04:44:05;;;;;;;5.90;3.38;;;;;;;0.67;95.77;93760.50;5108853;28;20268;-81
2023/01/27 04:46:33;;;;;;;4.70;2.75;;;;;;;0.53;96.09;93747.09;5109559;28;20225;-80
2023/01/27 04:49:00;;;;;;;3.67;1.90;;;;;;;0.19;97.42;93738.47;5109341;28;20193;-80
2023/01/27 04:51:27;;;;;;;11.68;5.65;;;;;;;0.06;99.16;93755.13;5109635;28;20193;-81
2023/01/27 04:53:53;;;;;;;11.85;4.78;;;;;;;0.19;99.69;93754.44;5109762;28;20207;-80
2023/01/27 04:56:27;;;;;;;8.77;4.97;;;;;;;0.41;99.70;93768.00;5109980;28;20262;-80
2023/01/27 04:58:55;;;;;;;5.50;2.58;;;;;;;0.34;100.00;93762.25;5110163;28;20198;-79
2023/01/27 05:01:22;;;;;;;9.52;5.07;;;;;;;0.41;100.00;93752.03;5109771;28;20220;-81
2023/01/27 05:03:49;;;;;;;10.30;4.63;;;;;;;0.50;100.00;93758.31;5109655;28;20536;-81
2023/01/27 05:06:16;;;;;;;9.77;4.32;;;;;;;0.61;100.00;93767.75;5109313;28;20225;-79
2023/01/27 05:08:43;;;;;;;14.13;4.97;;;;;;;0.91;100.00;93765.75;5109667;28;20205;-83
2023/01/27 05:11:10;;;;;;;7.88;4.22;;;;;;;0.87;98.77;93764.75;5109811;28;20725;-80
2023/01/27 05:13:39;;;;;;;5.18;3.45;;;;;;;0.68;98.65;93754.84;5110573;28;20205;-82
2023/01/27 05:16:12;;;;;;;8.50;3.47;;;;;;;0.53;99.48;93748.97;5109112;28;20250;-81
2023/01/27 05:18:40;;;;;;;9.93;4.85;;;;;;;0.57;100.00;93750.75;5106746;28;20204;-81
2023/01/27 05:21:07;;;;;;;9.27;4.13;;;;;;;0.74;100.00;93749.47;5108481;28;20209;-81
2023/01/27 05:23:37;;;;;;;7.65;4.47;;;;;;;1.04;100.00;93739.16;5105287;28;20193;-80
2023/01/27 05:26:10;;;;;;;11.77;5.43;;;;;;;1.13;98.63;93741.16;5108823;28;20228;-81
2023/01/27 05:28:40;;;;;;;9.88;4.72;;;;;;;0.99;98.28;93735.78;5108885;28;20282;-80
2023/01/27 05:31:10;;;;;;;9.30;4.82;;;;;;;1.00;98.22;93721.34;5108803;28;20200;-81
2023/01/27 05:33:38;;;;;;;7.20;3.95;;;;;;;0.99;97.77;93725.09;5108576;28;20217;-80
2023/01/27 05:36:09;;;;;;;8.23;4.38;;;;;;;1.05;98.21;93722.09;5107939;28;20229;-80
2023/01/27 05:38:36;;;;;;;8.10;4.03;;;;;;;0.96;97.94;93729.13;5114478;28;20224;-80
2023/01/27 05:41:06;;;;;;;10.60;4.10;;;;;;;0.80;98.11;93725.13;5113322;28;20251;-81
2023/01/27 05:43:34;;;;;;;9.70;4.00;;;;;;;0.95;99.00;93727.59;5112714;28;20193;-80
2023/01/27 05:46:05;;;;;;;7.80;4.35;;;;;;;0.93;98.76;93723.63;5109167;28;20715;-80
2023/01/27 05:48:33;;;;;;;6.90;4.22;;;;;;;0.93;98.78;93720.94;5110061;28;20686;-79
2023/01/27 05:51:00;;;;;;;8.63;4.10;;;;;;;0.84;99.35;93720.00;5109780;28;20236;-79
2023/01/27 05:53:27;;;;;;;5.88;3.03;;;;;;;0.86;99.31;93731.16;5109401;28;20217;-80
2023/01/27 05:55:57;;;;;;;9.10;3.78;;;;;;;0.57;99.06;93726.75;5108847;28;20209;-81
2023/01/27 05:58:24;;;;;;;4.00;1.48;;;;;;;0.43;100.00;93741.88;5109151;28;20204;-80
2023/01/27 06:00:51;;;;;;;2.15;1.33;;;;;;;0.38;99.82;93741.97;5109198;28;20599;-80
2023/01/27 06:03:20;;;;;;;3.38;1.88;;;;;;;0.47;100.00;93742.91;5109399;28;20198;-79
2023/01/27 06:05:52;;;;;;;2.80;1.58;;;;;;;0.51;100.00;93741.25;5109986;28;20712;-79
2023/01/27 06:08:19;;;;;;;3.90;2.35;;;;;;;0.45;100.00;93731.72;5112733;28;20246;-78
2023/01/27 06:10:46;;;;;;;10.95;2.10;;;;;;;0.35;100.00;93726.53;5111569;28;20618;-81
2023/01/27 06:13:13;;;;;;;4.65;2.50;;;;;;;0.43;100.00;93733.88;5114622;28;20202;-79
2023/01/27 06:15:41;;;;;;;6.75;2.80;;;;;;;0.54;100.00;93739.91;5114089;28;20555;-80
2023/01/27 06:18:08;;;;;;;8.13;3.70;;;;;;;0.60;100.00;93728.88;5113241;28;20285;-79
2023/01/27 06:20:37;;;;;;;10.07;3.60;;;;;;;0.61;100.00;93724.31;5112657;28;20609;-80
2023/01/27 06:23:04;;;;;;;7.22;3.22;;;;;;;0.61;100.00;93740.31;5092412;28;20198;-80
2023/01/27 06:25:31;;;;;;;3.35;2.53;;;;;;;0.39;100.00;93743.53;5091923;28;20222;-79
2023/01/27 06:27:58;;;;;;;10.25;3.53;;;;;;;0.28;100.00;93744.72;5112889;28;20233;-79
2023/01/27 06:30:24;;;;;;;4.80;2.70;;;;;;;0.21;100.00;93752.28;5098650;28;20267;-80
2023/01/27 06:32:51;;;;;;;4.90;2.38;;;;;;;0.30;100.00;93739.91;5112723;28;20202;-80
2023/01/27 06:35:18;;;;;;;1.65;1.20;;;;;;;0.25;100.00;93735.47;5112155;28;20237;-79
2023/01/27 06:37:46;;;;;;;3.72;1.65;;;;;;;0.26;100.00;93749.56;5112928;28;20198;-79
2023/01/27 06:40:13;;;;;;;2.45;2.05;;;;;;;0.15;100.00;93748.06;5113272;28;20668;-79
2023/01/27 06:42:43;;;;;;;7.45;2.22;;;;;;;0.21;100.00;93746.94;5112923;28;20205;-79
2023/01/27 06:45:11;;;;;;;1.85;1.25;;;;;;;0.28;100.00;93752.72;5112457;28;20204;-80
2023/01/27 06:47:38;;;;;;;3.10;2.03;;;;;;;0.31;100.00;93741.50;5112237;28;20229;-80
2023/01/27 06:50:06;;;;;;;2.47;1.67;;;;;;;0.20;100.00;93756.81;5112496;28;20202;-78
2023/01/27 06:52:32;;;;;;;3.65;1.58;;;;;;;0.29;100.00;93756.97;5112394;28;20270;-80
2023/01/27 06:55:01;;;;;;;6.60;2.97;;;;;;;0.32;100.00;93764.38;5111916;28;20205;-79
2023/01/27 06:57:28;;;;;;;1.95;1.65;;;;;;;0.24;100.00;93757.03;5111197;28;20214;-79
2023/01/27 06:59:55;;;;;;;3.13;1.90;;;;;;;0.38;100.00;93768.59;5112007;28;20201;-79
2023/01/27 07:02:21;;;;;;;3.22;2.20;;;;;;;0.35;99.53;93769.94;5111953;28;20664;-79
2023/01/27 07:04:48;;;;;;;10.25;2.08;;;;;;;0.38;99.09;93779.25;5111911;28;20717;-80
2023/01/27 07:07:15;;;;;;;2.92;2.25;;;;;;;0.51;98.89;93773.22;5111855;28;20314;-79
2023/01/27 07:09:42;;;;;;;1.38;1.27;;;;;;;0.50;98.61;93784.94;5113052;28;20259;-79
2023/01/27 07:12:10;;;;;;;2.58;1.73;;;;;;;0.42;98.20;93780.25;5112170;28;20322;-78
2023/01/27 07:14:36;;;;;;;1.00;0.90;;;;;;;0.39;98.02;93770.19;5098291;28;20210;-78
2023/01/27 07:17:03;;;;;;;4.32;1.35;;;;;;;0.47;98.14;93756.22;5112608;28;20194;-79
2023/01/27 07:19:30;;;;;;;3.00;1.48;;;;;;;0.57;98.48;93766.72;5111380;28;20205;-80
2023/01/27 07:21:57;;;;;;;3.55;1.80;;;;;;;0.58;98.32;93762.19;5112043;28;20197;-80
2023/01/27 07:24:23;;;;;;;2.70;1.80;;;;;;;0.77;97.75;93759.56;5112234;28;20197;-80
2023/01/27 07:26:50;;;;;;;5.70;2.45;;;;;;;0.86;97.90;93758.63;5111345;28;20278;-79
2023/01/27 07:29:18;;;;;;;5.28;2.55;;;;;;;0.95;96.52;93748.91;5111618;28;20226;-79
2023/01/27 07:31:45;;;;;;;9.15;2.72;;;;;;;1.12;97.04;93756.38;5111712;28;20289;-79
2023/01/27 07:34:12;;;;;;;4.32;2.58;;;;;;;1.47;96.08;93751.56;5111284;28;20202;-79
2023/01/27 07:36:39;;;;;;;3.35;2.45;;;;;;;1.56;94.83;93760.47;5111128;28;20221;-78
2023/01/27 07:39:05;;;;;;;8.57;3.70;;;;;;;1.23;95.02;93763.13;5111661;28;20255;-79
2023/01/27 07:41:32;;;;;;;9.70;1.95;;;;;;;1.15;95.26;93771.78;5111236;28;20201;-79
2023/01/27 07:43:59;;;;;;;3.10;1.92;;;;;;;0.99;95.95;93763.22;5097522;28;20855;-79
2023/01/27 07:46:27;;;;;;;2.33;1.83;;;;;;;0.88;95.58;93766.31;5110371;28;20703;-78
2023/01/27 07:48:54;;;;;;;12.98;2.85;;;;;;;0.94;96.63;93770.53;5110672;28;20660;-79
2023/01/27 07:51:20;;;;;;;2.90;2.53;;;;;;;0.84;95.68;93770.63;5110683;28;20201;-80
2023/01/27 07:53:47;;;;;;;2.08;1.58;;;;;;;0.84;95.22;93765.31;5110981;28;20201;-79
2023/01/27 07:56:14;;;;;;;4.00;2.38;;;;;;;0.92;94.99;93780.69;5110651;28;20258;-79
2023/01/27 07:58:42;;;;;;;1.40;1.20;;;;;;;0.91;95.49;93787.09;5110575;28;20242;-79
2023/01/27 08:01:10;;;;;;;2.45;1.65;;;;;;;1.02;95.23;93775.19;5111279;28;20213;-80
2023/01/27 08:03:39;;;;;;;2.83;1.60;;;;;;;1.19;94.45;93766.69;5111483;28;20198;-79
2023/01/27 08:06:07;;;;;;;6.93;3.92;;;;;;;0.88;93.87;93761.00;5110463;28;20278;-79
2023/01/27 08:08:37;;;;;;;2.30;1.63;;;;;;;0.90;94.08;93764.16;5111126;28;20834;-79
2023/01/27 08:11:07;;;;;;;6.97;1.63;;;;;;;1.26;94.46;93757.22;5110621;28;20209;-80
2023/01/27 08:13:35;;;;;;;2.47;1.65;;;;;;;1.02;93.30;93756.53;5111429;28;20206;-80
2023/01/27 08:16:04;;;;;;;1.15;0.98;;;;;;;0.97;93.38;93759.25;5110773;28;20206;-79
2023/01/27 08:18:33;;;;;;;1.88;1.67;;;;;;;0.92;94.02;93767.34;5110554;28;20201;-81
2023/01/27 08:21:02;;;;;;;2.67;1.75;;;;;;;1.15;93.96;93757.66;5109838;28;20289;-80
2023/01/27 08:23:29;;;;;;;3.45;2.22;;;;;;;0.87;94.79;93764.75;5109893;28;20807;-80
2023/01/27 08:25:58;;;;;;;1.83;1.35;;;;;;;0.84;94.37;93770.63;5110576;28;20544;-79
2023/01/27 08:28:26;;;;;;;1.27;1.13;;;;;;;0.64;94.51;93772.50;5110431;28;20214;-81
2023/01/27 08:30:53;;;;;;;4.72;2.88;;;;;;;0.59;95.03;93769.91;5110940;28;20257;-79
2023/01/27 08:33:20;;;;;;;2.60;1.80;;;;;;;0.56;95.03;93781.13;5110210;28;20205;-79
2023/01/27 08:35:48;;;;;;;3.53;2.17;;;;;;;0.59;95.28;93780.56;5109505;28;20230;-80
2023/01/27 08:38:18;;;;;;;7.78;3.75;;;;;;;0.64;95.38;93775.19;5109954;28;20568;-80
2023/01/27 08:40:46;;;;;;;6.18;3.63;;;;;;;0.55;95.07;93781.41;5110094;28;20631;-80
2023/01/27 08:43:15;;;;;;;2.53;1.52;;;;;;;0.45;95.08;93790.34;5110200;28;20208;-79
2023/01/27 08:45:42;;;;;;;2.97;2.47;;;;;;;0.49;95.40;93790.56;5096654;28;20263;-79
2023/01/27 08:48:09;;;;;;;51.10;24.38;;;;;;;0.58;96.48;93778.97;5109865;28;20241;-80
2023/01/27 08:50:36;;;;;;;5.75;3.25;;;;;;;0.62;95.27;93788.00;5110224;28;20337;-80
2023/01/27 08:53:03;;;;;;;1.13;1.02;;;;;;;0.70;94.31;93787.34;5110232;28;20251;-81
2023/01/27 08:55:33;;;;;;;5.25;3.05;;;;;;;0.86;94.40;93777.28;5110338;28;20197;-81
2023/01/27 08:57:59;;;;;;;7.32;4.63;;;;;;;0.77;94.98;93778.22;5110110;28;20193;-81
2023/01/27 09:00:26;;;;;;;4.97;2.92;;;;;;;0.81;94.61;93779.22;5110159;28;20250;-80
2023/01/27 09:02:53;;;;;;;1.60;1.02;;;;;;;0.75;94.07;93778.50;5109889;28;20205;-79
2023/01/27 09:05:21;;;;;;;2.60;2.28;;;;;;;0.66;93.92;93774.91;5110099;28;20231;-79
2023/01/27 09:07:48;;;;;;;3.35;1.98;;;;;;;0.61;95.14;93770.41;5109417;28;20711;-80
2023/01/27 09:10:15;;;;;;;2.05;1.42;;;;;;;0.57;94.26;93777.38;5109612;28;20205;-81
2023/01/27 09:12:44;;;;;;;4.75;3.13;;;;;;;0.88;94.59;93766.31;5109590;28;20292;-80
2023/01/27 09:15:12;;;;;;;4.55;1.45;;;;;;;0.71;93.70;93772.94;5104597;28;20205;-76
2023/01/27 09:17:39;;;;;;;4.63;1.90;;;;;;;0.81;94.54;93782.69;5109714;28;20284;-79
2023/01/27 09:20:07;;;;;;;2.28;2.03;;;;;;;0.80;94.41;93785.63;5099715;28;20202;-81
2023/01/27 09:22:35;;;;;;;5.32;2.60;;;;;;;1.02;93.60;93775.19;5104051;28;20669;-77
2023/01/27 09:25:02;;;;;;;5.55;2.53;;;;;;;1.14;93.89;93772.88;5108459;28;20346;-78
2023/01/27 09:27:29;;;;;;;5.65;2.05;;;;;;;1.17;93.34;93768.84;5108926;28;20725;-78
2023/01/27 09:29:57;;;;;;;7.18;3.00;;;;;;;1.19;92.94;93770.13;5108349;28;20990;-76
2023/01/27 09:32:24;;;;;;;5.55;3.15;;;;;;;0.95;93.32;93766.78;5109197;28;20197;-78
2023/01/27 09:34:51;;;;;;;2.75;1.20;;;;;;;0.62;94.75;93760.56;5108230;28;20225;-79
2023/01/27 09:37:18;;;;;;;4.47;1.70;;;;;;;0.80;95.38;93759.00;5108815;28;20201;-77
2023/01/27 09:39:51;;;;;;;4.57;2.05;;;;;;;0.90;95.46;93750.84;5109386;28;20249;-77
2023/01/27 09:42:38;;;;;;;2.70;1.05;;;;;;;0.95;94.35;93756.09;5108848;28;20205;-81
2023/01/27 09:45:34;;;;;;;2.05;1.75;;;;;;;0.83;94.87;93739.72;5109712;28;20198;-79
2023/01/27 09:48:14;;;;;;;1.17;1.10;;;;;;;0.98;95.56;93736.84;5108536;28;20233;-79
2023/01/27 09:50:44;;;;;;;2.97;1.52;;;;;;;0.91;95.32;93739.09;5105027;28;20201;-80
2023/01/27 09:53:36;;;;;;;1.48;1.35;;;;;;;0.81;96.00;93739.25;5108792;28;20197;-78
2023/01/27 09:56:09;;;;;;;2.38;1.10;;;;;;;0.80;95.85;93721.69;5112983;28;20253;-78
2023/01/27 09:58:50;;;;;;;0.52;0.52;;;;;;;0.64;96.78;93724.56;5113129;28;20197;-81
2023/01/27 10:01:42;;;;;;;2.22;1.58;;;;;;;0.61;97.10;93719.78;5114304;28;20197;-83
2023/01/27 10:04:32;;;;;;;1.17;0.88;;;;;;;0.51;98.08;93711.94;5096103;28;20266;-81
2023/01/27 10:07:19;;;;;;;0.90;0.90;;;;;;;0.86;97.12;93715.16;5115553;28;20248;-82
2023/01/27 10:10:04;;;;;;;4.93;1.35;;;;;;;0.91;96.74;93718.56;5114188;28;20201;-82
2023/01/27 10:12:46;;;;;;;1.20;1.00;;;;;;;0.64;97.35;93711.22;5114458;28;20205;-80
2023/01/27 10:15:28;;;;;;;2.85;2.05;;;;;;;0.70;97.15;93706.59;5114269;28;20272;-81
2023/01/27 10:18:08;;;;;;;3.60;1.63;;;;;;;0.86;97.07;93717.84;5113456;28;20208;-78
2023/01/27 10:20:45;;;;;;;2.35;1.65;;;;;;;1.09;96.49;93724.97;5114009;28;20250;-82
2023/01/27 10:23:25;;;;;;;0.90;0.88;;;;;;;1.01;95.86;93723.75;5115148;28;20208;-84
2023/01/27 10:26:03;;;;;;;2.17;1.30;;;;;;;0.93;96.38;93716.41;5112214;28;20205;-81
2023/01/27 10:28:31;;;;;;;2.83;2.17;;;;;;;0.83;96.90;93710.41;5113216;28;20233;-82
2023/01/27 10:31:00;;;;;;;2.42;1.88;;;;;;;1.13;96.70;93714.50;5112759;28;20259;-81
2023/01/27 10:33:43;;;;;;;2.60;1.70;;;;;;;1.25;96.04;93712.94;5112714;28;20206;-82
2023/01/27 10:36:23;;;;;;;3.42;2.35;;;;;;;0.76;95.44;93705.47;5113382;28;20558;-81
2023/01/27 10:39:02;;;;;;;1.70;1.13;;;;;;;0.63;96.69;93712.31;5112421;28;20585;-79
2023/01/27 10:41:36;;;;;;;8.38;1.60;;;;;;;0.58;97.27;93717.69;5100469;28;20210;-81
2023/01/27 10:44:20;;;;;;;2.22;1.35;;;;;;;0.63;97.72;93712.31;5111753;28;20238;-82
2023/01/27 10:46:55;;;;;;;1.13;1.02;;;;;;;0.64;97.61;93708.56;5112402;28;20217;-81
2023/01/27 10:49:29;;;;;;;2.28;1.60;;;;;;;0.78;97.53;93702.50;5112157;28;20201;-82
2023/01/27 10:52:00;;;;;;;3.15;2.50;;;;;;;0.60;97.96;93704.88;5112011;28;20223;-82
2023/01/27 10:54:32;;;;;;;1.52;1.15;;;;;;;0.85;98.03;93708.25;5112356;28;20193;-79
2023/01/27 10:57:06;;;;;;;2.05;1.55;;;;;;;0.67;98.07;93713.31;5095168;28;20201;-81
2023/01/27 10:59:40;;;;;;;1.77;1.67;;;;;;;0.75;98.30;93713.75;5112348;28;20657;-81
2023/01/27 11:02:17;;;;;;;1.88;1.48;;;;;;;0.78;98.00;93713.16;5111602;28;20197;-80
2023/01/27 11:04:50;;;;;;;2.75;1.80;;;;;;;0.88;97.76;93707.69;5111986;28;20219;-81
2023/01/27 11:07:19;;;;;;;5.15;2.58;;;;;;;0.83;97.48;93710.41;5112127;28;20238;-80
2023/01/27 11:09:53;;;;;;;2.92;2.00;;;;;;;0.95;97.23;93713.47;5112064;28;20614;-80
2023/01/27 11:12:28;;;;;;;2.35;1.75;;;;;;;0.84;97.91;93712.78;5111648;28;20205;-80
2023/01/27 11:14:57;;;;;;;2.03;1.52;;;;;;;0.80;97.52;93705.69;5113841;28;20197;-81
2023/01/27 11:17:30;;;;;;;2.40;1.75;;;;;;;0.91;97.84;93701.78;5112503;28;20194;-79
2023/01/27 11:20:04;;;;;;;5.75;1.63;;;;;;;1.04;97.72;93701.03;5111329;28;20212;-79
2023/01/27 11:22:36;;;;;;;2.70;1.17;;;;;;;1.06;96.15;93699.69;5111242;28;20294;-79
2023/01/27 11:25:11;;;;;;;2.70;1.73;;;;;;;0.99;96.32;93698.44;5111796;28;20258;-82
2023/01/27 11:27:53;;;;;;;1.95;1.73;;;;;;;0.98;95.65;93694.19;5111070;28;20324;-82
2023/01/27 11:30:26;;;;;;;0.95;0.93;;;;;;;1.09;96.10;93692.97;5111072;28;20258;-82
2023/01/27 11:33:01;;;;;;;3.65;1.85;;;;;;;0.78;95.87;93687.31;5111949;28;20251;-80
2023/01/27 11:35:29;;;;;;;1.45;1.20;;;;;;;0.68;96.65;93687.47;5110985;28;20229;-82
2023/01/27 11:37:56;;;;;;;3.83;2.45;;;;;;;0.82;96.90;93682.97;5111119;28;20278;-81
2023/01/27 11:40:27;;;;;;;2.40;1.40;;;;;;;0.92;97.04;93679.38;5111436;28;20246;-81
2023/01/27 11:42:56;;;;;;;2.95;1.50;;;;;;;0.71;96.39;93685.00;5111245;28;20680;-80
2023/01/27 11:45:24;;;;;;;2.22;1.63;;;;;;;0.73;96.48;93683.91;5111232;28;20672;-80
2023/01/27 11:47:55;;;;;;;1.70;1.33;;;;;;;0.59;96.94;93668.66;5111170;28;20225;-79
2023/01/27 11:50:23;;;;;;;2.10;1.48;;;;;;;0.70;96.78;93670.09;5111433;28;20194;-81
2023/01/27 11:52:58;;;;;;;5.30;2.35;;;;;;;0.60;97.03;93675.56;5111175;28;20198;-82
2023/01/27 11:55:28;;;;;;;2.65;1.63;;;;;;;0.84;96.73;93664.03;5090899;28;20206;-81
2023/01/27 11:58:02;;;;;;;6.85;2.58;;;;;;;0.94;96.42;93674.56;5106811;28;20206;-79
2023/01/27 12:00:34;;;;;;;4.57;2.63;;;;;;;1.15;96.30;93672.34;5111982;28;20714;-79
2023/01/27 12:03:06;;;;;;;5.72;4.43;;;;;;;1.02;96.10;93665.88;5112416;28;20205;-81
2023/01/27 12:05:35;;;;;;;2.63;2.25;;;;;;;1.10;95.87;93672.41;5112641;28;20208;-80
2023/01/27 12:08:05;;;;;;;1.77;1.45;;;;;;;1.16;94.94;93671.25;5110602;28;20599;-80
2023/01/27 12:10:34;;;;;;;2.75;2.00;;;;;;;1.21;94.84;93679.97;5091949;28;20198;-80
2023/01/27 12:13:09;;;;;;;7.38;2.38;;;;;;;1.40;95.04;93672.69;5110673;28;20743;-79
2023/01/27 12:15:37;;;;;;;2.17;1.75;;;;;;;1.27;93.76;93678.78;5110628;28;20283;-80